This is the latest recevied weather packets stored in our database for station/object WE1C. If no packets are shown the sender has not sent any weather packets the latest 1 day(s).
| Time | Temp. | Humidity | Pressure | Rain* | Wind** | Luminosity | Snow |
|---|---|---|---|---|---|---|---|
| 1778086830 | 21.11° C | 60% | 1036.6 hPa | 0 mm | - | 277 W/m² | - |
| 1778086224 | 21.67° C | 60% | 1036.9 hPa | 0 mm | - | 190 W/m² | - |
| 1778085921 | 21.67° C | 59% | 1036.8 hPa | 0 mm | - | 295 W/m² | - |
| 1778084404 | 21.11° C | 61% | 1037.2 hPa | 0 mm | - | 349 W/m² | - |
| 1778081480 | 20° C | 63% | 1037.7 hPa | 0 mm | - | 262 W/m² | - |
| 1778081177 | 20° C | 64% | 1037.6 hPa | 0 mm | - | 204 W/m² | - |
| 1778078754 | 20.56° C | 63% | 1038.3 hPa | 0 mm | - | 312 W/m² | - |
| 1778078451 | 20.56° C | 64% | 1038.1 hPa | 0 mm | - | 342 W/m² | - |
| 1778077847 | 20° C | 67% | 1038.7 hPa | 0 mm | - | 352 W/m² | - |
| 1778076940 | 19.44° C | 67% | 1038.3 hPa | 0 mm | - | 403 W/m² | - |
| 1778074818 | 18.89° C | 71% | 1038.4 hPa | 0 mm | - | 484 W/m² | - |
| 1778074212 | 18.33° C | 71% | 1038.2 hPa | 0 mm | - | 322 W/m² | - |
| 1778071790 | 17.22° C | 76% | 1038.9 hPa | 0 mm | - | 197 W/m² | - |
| 1778069672 | 16.11° C | 78% | 1038.8 hPa | 0 mm | - | 311 W/m² | - |
| 1778068764 | 16.11° C | 78% | 1038.8 hPa | 0 mm | - | 237 W/m² | - |
| 1778068160 | 16.11° C | 79% | 1038.8 hPa | 0 mm | - | 141 W/m² | - |
| 1778067857 | 16.11° C | 79% | 1038.8 hPa | 0 mm | - | 169 W/m² | - |
| 1778067556 | 16.11° C | 79% | 1038.9 hPa | 0 mm | - | 220 W/m² | - |
| 1778067253 | 15.56° C | 80% | 1038.8 hPa | 0 mm | - | 223 W/m² | - |
| 1778065739 | 15° C | 81% | 1039.3 hPa | 0 mm | - | 48 W/m² | - |
| 1778065133 | 15° C | 81% | 1039.2 hPa | 0 mm | - | 70 W/m² | - |
| 1778062407 | 13.89° C | 83% | 1038.9 hPa | 0 mm | - | 25 W/m² | - |
| 1778061804 | 13.89° C | 83% | 1039 hPa | 0 mm | - | 11 W/m² | - |
| 1778061502 | 13.89° C | 83% | 1039.1 hPa | 0 mm | - | 10 W/m² | - |
| 1778061198 | 13.89° C | 83% | 1039.1 hPa | 0 mm | - | 8 W/m² | - |
* Rain latest hour (hover to see other rain measurements)
** Current wind speed in m/s (hover to see current wind gust speed)